« Back
NWS Peachtree City, Ga » Text Product » CSG Terminal Aerodrome Forecast


Printer-friendly Version
Current Version              Previous Versions:   1  2  3  4  5  6  7  8  9  

Terminal Aerodrome Forecast

663
FTUS42 KFFC 272340
TAFCSG
TAF
KCSG 272340Z 2800/2824 01005KT P6SM BKN200
     FM280600 05005KT P6SM BKN200
     FM281500 09010KT P6SM SCT050 BKN120
     FM281800 10011KT P6SM SCT025 BKN050 PROB30 2818/2822 6SM -RA BR
      BKN025
     FM282200 11009KT 6SM -RA BR OVC025=

USA.gov is the U.S. government's official web portal to all federal, state and local government web resources and services.